sensor_id;sensor_type;location;lat;lon;timestamp;pressure;altitude;pressure_sealevel;temperature;humidity
42771;BME280;28426;42.872;25.314;2022-11-15T00:01:50;97666.72;;;4.07;100.00
42771;BME280;28426;42.872;25.314;2022-11-15T00:04:41;97669.41;;;4.16;100.00
42771;BME280;28426;42.872;25.314;2022-11-15T00:07:30;97667.59;;;4.17;98.83
42771;BME280;28426;42.872;25.314;2022-11-15T00:10:39;97675.47;;;4.07;96.19
42771;BME280;28426;42.872;25.314;2022-11-15T00:13:29;97669.41;;;3.95;96.23
42771;BME280;28426;42.872;25.314;2022-11-15T00:16:18;97675.22;;;3.89;98.30
42771;BME280;28426;42.872;25.314;2022-11-15T00:19:08;97673.28;;;3.91;100.00
42771;BME280;28426;42.872;25.314;2022-11-15T00:21:59;97662.91;;;3.99;100.00
42771;BME280;28426;42.872;25.314;2022-11-15T00:24:49;97659.50;;;4.09;100.00
42771;BME280;28426;42.872;25.314;2022-11-15T00:27:38;97664.84;;;4.18;100.00
42771;BME280;28426;42.872;25.314;2022-11-15T00:30:28;97657.72;;;4.19;100.00
42771;BME280;28426;42.872;25.314;2022-11-15T00:33:17;97663.28;;;4.16;97.79
42771;BME280;28426;42.872;25.314;2022-11-15T00:36:09;97646.94;;;4.01;95.63
42771;BME280;28426;42.872;25.314;2022-11-15T00:39:00;97649.75;;;3.88;96.93
42771;BME280;28426;42.872;25.314;2022-11-15T00:41:50;97644.47;;;3.88;100.00
42771;BME280;28426;42.872;25.314;2022-11-15T00:44:38;97649.72;;;3.99;100.00
42771;BME280;28426;42.872;25.314;2022-11-15T00:47:30;97647.13;;;4.09;100.00
42771;BME280;28426;42.872;25.314;2022-11-15T00:50:19;97644.81;;;4.16;100.00
42771;BME280;28426;42.872;25.314;2022-11-15T00:53:08;97623.06;;;4.12;100.00
42771;BME280;28426;42.872;25.314;2022-11-15T00:56:00;97633.56;;;4.24;100.00
42771;BME280;28426;42.872;25.314;2022-11-15T00:58:50;97641.75;;;4.21;98.89
42771;BME280;28426;42.872;25.314;2022-11-15T01:01:39;97629.47;;;4.10;96.74
42771;BME280;28426;42.872;25.314;2022-11-15T01:04:28;97626.91;;;3.98;97.70
42771;BME280;28426;42.872;25.314;2022-11-15T01:07:17;97632.69;;;3.92;98.75
42771;BME280;28426;42.872;25.314;2022-11-15T01:10:08;97628.38;;;3.91;99.77
42771;BME280;28426;42.872;25.314;2022-11-15T01:12:59;97628.84;;;3.96;100.00
42771;BME280;28426;42.872;25.314;2022-11-15T01:15:49;97626.50;;;4.03;100.00
42771;BME280;28426;42.872;25.314;2022-11-15T01:18:38;97619.19;;;4.07;100.00
42771;BME280;28426;42.872;25.314;2022-11-15T01:21:28;97623.69;;;4.16;100.00
42771;BME280;28426;42.872;25.314;2022-11-15T01:24:17;97619.81;;;4.20;100.00
42771;BME280;28426;42.872;25.314;2022-11-15T01:27:06;97616.19;;;4.21;100.00
42771;BME280;28426;42.872;25.314;2022-11-15T01:29:58;97617.00;;;4.22;100.00
42771;BME280;28426;42.872;25.314;2022-11-15T01:32:47;97617.16;;;4.20;100.00
42771;BME280;28426;42.872;25.314;2022-11-15T01:35:38;97607.38;;;4.11;100.00
42771;BME280;28426;42.872;25.314;2022-11-15T01:38:28;97618.41;;;4.16;99.10
42771;BME280;28426;42.872;25.314;2022-11-15T01:41:20;97626.69;;;4.11;98.00
42771;BME280;28426;42.872;25.314;2022-11-15T01:44:43;97631.59;;;3.95;95.00
42771;BME280;28426;42.872;25.314;2022-11-15T01:47:38;97628.47;;;3.79;95.70
42771;BME280;28426;42.872;25.314;2022-11-15T01:50:29;97612.44;;;3.71;98.23
42771;BME280;28426;42.872;25.314;2022-11-15T01:53:21;97616.63;;;3.74;99.91
42771;BME280;28426;42.872;25.314;2022-11-15T01:56:15;97621.50;;;3.78;100.00
42771;BME280;28426;42.872;25.314;2022-11-15T01:59:06;97612.88;;;3.76;100.00
42771;BME280;28426;42.872;25.314;2022-11-15T02:01:57;97618.81;;;3.90;100.00
42771;BME280;28426;42.872;25.314;2022-11-15T02:04:49;97613.00;;;3.96;100.00
42771;BME280;28426;42.872;25.314;2022-11-15T02:07:38;97613.38;;;4.13;100.00
42771;BME280;28426;42.872;25.314;2022-11-15T02:10:28;97612.75;;;4.30;100.00
42771;BME280;28426;42.872;25.314;2022-11-15T02:13:17;97610.59;;;4.45;100.00
42771;BME280;28426;42.872;25.314;2022-11-15T02:16:30;97611.06;;;4.61;100.00
42771;BME280;28426;42.872;25.314;2022-11-15T02:19:40;97623.19;;;4.73;100.00
42771;BME280;28426;42.872;25.314;2022-11-15T02:22:48;97602.63;;;4.77;100.00
42771;BME280;28426;42.872;25.314;2022-11-15T02:25:51;97612.25;;;4.97;100.00
42771;BME280;28426;42.872;25.314;2022-11-15T02:28:55;97610.28;;;5.09;100.00
42771;BME280;28426;42.872;25.314;2022-11-15T02:31:54;97606.00;;;5.18;100.00
42771;BME280;28426;42.872;25.314;2022-11-15T02:34:51;97605.31;;;5.26;100.00
42771;BME280;28426;42.872;25.314;2022-11-15T02:37:47;97611.44;;;5.36;100.00
42771;BME280;28426;42.872;25.314;2022-11-15T02:40:44;97600.56;;;5.40;100.00
42771;BME280;28426;42.872;25.314;2022-11-15T02:43:39;97606.69;;;5.50;100.00
42771;BME280;28426;42.872;25.314;2022-11-15T02:46:51;97595.56;;;5.56;100.00
42771;BME280;28426;42.872;25.314;2022-11-15T02:49:57;97594.97;;;5.62;99.37
42771;BME280;28426;42.872;25.314;2022-11-15T02:52:48;97590.22;;;5.66;98.99
42771;BME280;28426;42.872;25.314;2022-11-15T02:55:40;97588.28;;;5.68;98.42
42771;BME280;28426;42.872;25.314;2022-11-15T02:58:48;97588.28;;;5.68;97.75
42771;BME280;28426;42.872;25.314;2022-11-15T03:01:49;97587.84;;;5.73;97.65
42771;BME280;28426;42.872;25.314;2022-11-15T03:04:52;97582.28;;;5.76;97.25
42771;BME280;28426;42.872;25.314;2022-11-15T03:07:48;97578.94;;;5.74;97.05
42771;BME280;28426;42.872;25.314;2022-11-15T03:10:53;97589.41;;;5.75;96.32
42771;BME280;28426;42.872;25.314;2022-11-15T03:13:48;97576.00;;;5.77;96.17
42771;BME280;28426;42.872;25.314;2022-11-15T03:16:45;97580.34;;;5.78;96.23
42771;BME280;28426;42.872;25.314;2022-11-15T03:19:42;97579.34;;;5.79;95.89
42771;BME280;28426;42.872;25.314;2022-11-15T03:22:39;97577.53;;;5.80;95.49
42771;BME280;28426;42.872;25.314;2022-11-15T03:25:31;97579.34;;;5.79;95.38
42771;BME280;28426;42.872;25.314;2022-11-15T03:28:25;97586.84;;;5.84;95.55
42771;BME280;28426;42.872;25.314;2022-11-15T03:31:19;97579.63;;;5.86;95.54
42771;BME280;28426;42.872;25.314;2022-11-15T03:34:27;97559.16;;;5.78;95.12
42771;BME280;28426;42.872;25.314;2022-11-15T03:37:18;97572.22;;;5.89;95.02
42771;BME280;28426;42.872;25.314;2022-11-15T03:40:12;97569.28;;;5.93;95.05
42771;BME280;28426;42.872;25.314;2022-11-15T03:43:06;97565.66;;;5.94;94.48
42771;BME280;28426;42.872;25.314;2022-11-15T03:46:01;97564.66;;;5.95;94.58
42771;BME280;28426;42.872;25.314;2022-11-15T03:48:56;97561.19;;;5.94;94.43
42771;BME280;28426;42.872;25.314;2022-11-15T03:51:48;97554.06;;;5.95;94.23
42771;BME280;28426;42.872;25.314;2022-11-15T03:54:47;97553.94;;;5.96;94.13
42771;BME280;28426;42.872;25.314;2022-11-15T03:57:39;97548.63;;;5.96;94.10
42771;BME280;28426;42.872;25.314;2022-11-15T04:00:28;97547.94;;;5.94;94.00
42771;BME280;28426;42.872;25.314;2022-11-15T04:03:17;97554.78;;;5.97;93.87
42771;BME280;28426;42.872;25.314;2022-11-15T04:06:07;97561.72;;;5.98;93.44
42771;BME280;28426;42.872;25.314;2022-11-15T04:08:56;97550.28;;;5.97;93.34
42771;BME280;28426;42.872;25.314;2022-11-15T04:11:45;97556.44;;;5.98;93.17
42771;BME280;28426;42.872;25.314;2022-11-15T04:14:37;97553.78;;;5.98;93.22
42771;BME280;28426;42.872;25.314;2022-11-15T04:17:48;97545.84;;;5.98;93.28
42771;BME280;28426;42.872;25.314;2022-11-15T04:20:38;97533.31;;;5.90;93.29
42771;BME280;28426;42.872;25.314;2022-11-15T04:23:39;97547.50;;;5.99;93.27
42771;BME280;28426;42.872;25.314;2022-11-15T04:26:40;97538.88;;;5.97;93.17
42771;BME280;28426;42.872;25.314;2022-11-15T04:29:30;97536.91;;;5.99;92.87
42771;BME280;28426;42.872;25.314;2022-11-15T04:32:27;97525.91;;;5.94;92.97
42771;BME280;28426;42.872;25.314;2022-11-15T04:35:16;97537.63;;;6.01;92.64
42771;BME280;28426;42.872;25.314;2022-11-15T04:38:08;97532.31;;;6.01;92.64
42771;BME280;28426;42.872;25.314;2022-11-15T04:40:57;97538.56;;;6.00;92.61
42771;BME280;28426;42.872;25.314;2022-11-15T04:43:46;97532.47;;;5.99;92.16
42771;BME280;28426;42.872;25.314;2022-11-15T04:46:35;97534.41;;;5.97;92.05
42771;BME280;28426;42.872;25.314;2022-11-15T04:49:27;97528.41;;;5.95;91.97
42771;BME280;28426;42.872;25.314;2022-11-15T04:52:16;97532.19;;;5.93;92.09
42771;BME280;28426;42.872;25.314;2022-11-15T04:55:05;97520.50;;;5.85;92.16
42771;BME280;28426;42.872;25.314;2022-11-15T04:57:58;97525.81;;;5.85;91.67
42771;BME280;28426;42.872;25.314;2022-11-15T05:00:47;97526.78;;;5.84;91.61
42771;BME280;28426;42.872;25.314;2022-11-15T05:03:36;97533.34;;;5.80;91.94
42771;BME280;28426;42.872;25.314;2022-11-15T05:06:41;97521.09;;;5.79;91.95
42771;BME280;28426;42.872;25.314;2022-11-15T05:09:30;97529.19;;;5.78;91.95
42771;BME280;28426;42.872;25.314;2022-11-15T05:12:19;97530.31;;;5.75;91.70
42771;BME280;28426;42.872;25.314;2022-11-15T05:15:09;97532.25;;;5.73;91.56
42771;BME280;28426;42.872;25.314;2022-11-15T05:17:59;97532.25;;;5.73;91.97
42771;BME280;28426;42.872;25.314;2022-11-15T05:20:48;97539.38;;;5.72;91.76
42771;BME280;28426;42.872;25.314;2022-11-15T05:23:40;97539.22;;;5.74;91.91
42771;BME280;28426;42.872;25.314;2022-11-15T05:26:29;97537.25;;;5.76;92.03
42771;BME280;28426;42.872;25.314;2022-11-15T05:29:22;97538.91;;;5.77;92.36
42771;BME280;28426;42.872;25.314;2022-11-15T05:32:11;97516.66;;;5.70;92.39
42771;BME280;28426;42.872;25.314;2022-11-15T05:35:01;97538.66;;;5.80;91.97
42771;BME280;28426;42.872;25.314;2022-11-15T05:37:50;97534.19;;;5.81;91.84
42771;BME280;28426;42.872;25.314;2022-11-15T05:40:42;97536.97;;;5.79;91.89
42771;BME280;28426;42.872;25.314;2022-11-15T05:43:34;97546.44;;;5.82;91.73
42771;BME280;28426;42.872;25.314;2022-11-15T05:46:24;97537.53;;;5.83;91.79
42771;BME280;28426;42.872;25.314;2022-11-15T05:49:16;97540.03;;;5.84;91.72
42771;BME280;28426;42.872;25.314;2022-11-15T05:52:10;97543.53;;;5.85;91.51
42771;BME280;28426;42.872;25.314;2022-11-15T05:55:02;97542.69;;;5.84;91.36
42771;BME280;28426;42.872;25.314;2022-11-15T05:57:54;97544.78;;;5.81;91.60
42771;BME280;28426;42.872;25.314;2022-11-15T06:00:43;97536.84;;;5.81;91.47
42771;BME280;28426;42.872;25.314;2022-11-15T06:03:32;97542.81;;;5.83;91.33
42771;BME280;28426;42.872;25.314;2022-11-15T06:06:21;97547.00;;;5.85;91.30
42771;BME280;28426;42.872;25.314;2022-11-15T06:09:10;97542.94;;;5.81;91.45
42771;BME280;28426;42.872;25.314;2022-11-15T06:11:59;97553.28;;;5.84;91.09
42771;BME280;28426;42.872;25.314;2022-11-15T06:14:50;97553.28;;;5.84;91.36
42771;BME280;28426;42.872;25.314;2022-11-15T06:17:40;97552.28;;;5.85;91.43
42771;BME280;28426;42.872;25.314;2022-11-15T06:20:29;97553.28;;;5.84;91.41
42771;BME280;28426;42.872;25.314;2022-11-15T06:23:18;97553.28;;;5.84;91.09
42771;BME280;28426;42.872;25.314;2022-11-15T06:26:07;97553.28;;;5.84;91.10
42771;BME280;28426;42.872;25.314;2022-11-15T06:28:56;97557.59;;;5.85;91.52
42771;BME280;28426;42.872;25.314;2022-11-15T06:31:48;97552.28;;;5.85;91.08
42771;BME280;28426;42.872;25.314;2022-11-15T06:34:38;97552.16;;;5.87;91.22
42771;BME280;28426;42.872;25.314;2022-11-15T06:37:29;97556.47;;;5.88;91.64
42771;BME280;28426;42.872;25.314;2022-11-15T06:40:18;97555.34;;;5.91;91.62
42771;BME280;28426;42.872;25.314;2022-11-15T06:43:07;97550.03;;;5.91;91.60
42771;BME280;28426;42.872;25.314;2022-11-15T06:45:57;97548.91;;;5.93;91.27
42771;BME280;28426;42.872;25.314;2022-11-15T06:48:50;97555.06;;;5.94;90.95
42771;BME280;28426;42.872;25.314;2022-11-15T06:51:39;97544.47;;;5.94;90.63
42771;BME280;28426;42.872;25.314;2022-11-15T06:54:28;97542.78;;;5.93;90.02
42771;BME280;28426;42.872;25.314;2022-11-15T06:57:17;97544.72;;;5.91;90.09
42771;BME280;28426;42.872;25.314;2022-11-15T07:00:07;97541.41;;;5.88;89.70
42771;BME280;28426;42.872;25.314;2022-11-15T07:02:59;97543.34;;;5.86;89.11
42771;BME280;28426;42.872;25.314;2022-11-15T07:05:56;97540.03;;;5.84;89.04
42771;BME280;28426;42.872;25.314;2022-11-15T07:08:52;97540.88;;;5.85;89.49
42771;BME280;28426;42.872;25.314;2022-11-15T07:11:41;97536.41;;;5.85;89.22
42771;BME280;28426;42.872;25.314;2022-11-15T07:14:30;97541.69;;;5.85;88.86
42771;BME280;28426;42.872;25.314;2022-11-15T07:17:19;97542.25;;;5.89;88.94
42771;BME280;28426;42.872;25.314;2022-11-15T07:20:08;97534.13;;;5.91;88.91
42771;BME280;28426;42.872;25.314;2022-11-15T07:23:03;97531.66;;;5.89;88.97
42771;BME280;28426;42.872;25.314;2022-11-15T07:25:52;97532.19;;;5.93;88.62
42771;BME280;28426;42.872;25.314;2022-11-15T07:28:41;97524.25;;;5.93;88.66
42771;BME280;28426;42.872;25.314;2022-11-15T07:31:30;97518.81;;;5.94;88.65
42771;BME280;28426;42.872;25.314;2022-11-15T07:34:19;97524.94;;;5.95;88.44
42771;BME280;28426;42.872;25.314;2022-11-15T07:37:10;97521.31;;;5.96;88.39
42771;BME280;28426;42.872;25.314;2022-11-15T07:40:02;97522.84;;;5.98;88.18
42771;BME280;28426;42.872;25.314;2022-11-15T07:42:52;97515.44;;;6.02;88.29
42771;BME280;28426;42.872;25.314;2022-11-15T07:45:44;97513.50;;;6.04;88.46
42771;BME280;28426;42.872;25.314;2022-11-15T07:48:37;97516.00;;;6.06;88.13
42771;BME280;28426;42.872;25.314;2022-11-15T07:51:30;97513.06;;;6.09;88.07
42771;BME280;28426;42.872;25.314;2022-11-15T07:54:18;97511.09;;;6.11;87.95
42771;BME280;28426;42.872;25.314;2022-11-15T07:57:10;97515.44;;;6.12;87.56
42771;BME280;28426;42.872;25.314;2022-11-15T07:59:59;97512.59;;;6.13;87.60
42771;BME280;28426;42.872;25.314;2022-11-15T08:02:48;97508.84;;;6.16;87.61
42771;BME280;28426;42.872;25.314;2022-11-15T08:05:38;97506.03;;;6.18;87.05
42771;BME280;28426;42.872;25.314;2022-11-15T08:08:28;97509.25;;;6.21;87.38
42771;BME280;28426;42.872;25.314;2022-11-15T08:11:18;97503.09;;;6.21;87.11
42771;BME280;28426;42.872;25.314;2022-11-15T08:14:09;97507.81;;;6.27;87.28
42771;BME280;28426;42.872;25.314;2022-11-15T08:16:58;97509.19;;;6.31;86.92
42771;BME280;28426;42.872;25.314;2022-11-15T08:19:47;97506.25;;;6.34;86.61
42771;BME280;28426;42.872;25.314;2022-11-15T08:22:37;97481.28;;;6.27;85.84
42771;BME280;28426;42.872;25.314;2022-11-15T08:25:27;97503.31;;;6.37;85.96
42771;BME280;28426;42.872;25.314;2022-11-15T08:28:17;97502.97;;;6.40;85.72
42771;BME280;28426;42.872;25.314;2022-11-15T08:31:13;97500.19;;;6.42;85.42
42771;BME280;28426;42.872;25.314;2022-11-15T08:34:02;97501.72;;;6.45;85.63
42771;BME280;28426;42.872;25.314;2022-11-15T08:36:51;97495.13;;;6.49;85.42
42771;BME280;28426;42.872;25.314;2022-11-15T08:39:41;97489.53;;;6.52;85.48
42771;BME280;28426;42.872;25.314;2022-11-15T08:42:30;97479.78;;;6.52;85.31
42771;BME280;28426;42.872;25.314;2022-11-15T08:45:19;97477.50;;;6.58;85.51
42771;BME280;28426;42.872;25.314;2022-11-15T08:48:10;97480.53;;;6.63;85.51
42771;BME280;28426;42.872;25.314;2022-11-15T08:51:00;97470.44;;;6.66;85.39
42771;BME280;28426;42.872;25.314;2022-11-15T08:53:48;97460.22;;;6.72;85.44
42771;BME280;28426;42.872;25.314;2022-11-15T08:56:38;97465.94;;;6.77;85.05
42771;BME280;28426;42.872;25.314;2022-11-15T08:59:27;97455.84;;;6.80;85.21
42771;BME280;28426;42.872;25.314;2022-11-15T09:02:17;97456.34;;;6.84;84.75
42771;BME280;28426;42.872;25.314;2022-11-15T09:05:09;97448.09;;;6.87;84.01
42771;BME280;28426;42.872;25.314;2022-11-15T09:07:58;97430.13;;;6.81;84.23
42771;BME280;28426;42.872;25.314;2022-11-15T09:11:09;97437.84;;;6.92;83.84
42771;BME280;28426;42.872;25.314;2022-11-15T09:13:58;97432.25;;;6.96;84.02
42771;BME280;28426;42.872;25.314;2022-11-15T09:16:47;97430.25;;;6.98;83.84
42771;BME280;28426;42.872;25.314;2022-11-15T09:19:36;97425.47;;;7.01;83.72
42771;BME280;28426;42.872;25.314;2022-11-15T09:22:28;97421.72;;;7.04;83.63
42771;BME280;28426;42.872;25.314;2022-11-15T09:25:17;97416.06;;;7.07;83.94
42771;BME280;28426;42.872;25.314;2022-11-15T09:28:07;97413.13;;;7.10;83.99
42771;BME280;28426;42.872;25.314;2022-11-15T09:30:57;97398.69;;;7.13;83.48
42771;BME280;28426;42.872;25.314;2022-11-15T09:33:47;97406.88;;;7.19;83.46
42771;BME280;28426;42.872;25.314;2022-11-15T09:36:36;97407.22;;;7.25;83.56
42771;BME280;28426;42.872;25.314;2022-11-15T09:39:28;97403.13;;;7.30;83.41
42771;BME280;28426;42.872;25.314;2022-11-15T09:42:36;97382.41;;;7.34;82.85
42771;BME280;28426;42.872;25.314;2022-11-15T09:45:38;97385.41;;;7.39;82.99
42771;BME280;28426;42.872;25.314;2022-11-15T09:48:47;97385.09;;;7.42;82.49
42771;BME280;28426;42.872;25.314;2022-11-15T09:51:43;97389.09;;;7.46;82.34
42771;BME280;28426;42.872;25.314;2022-11-15T09:54:25;97385.31;;;7.49;82.58
42771;BME280;28426;42.872;25.314;2022-11-15T09:57:22;97379.84;;;7.51;82.14
42771;BME280;28426;42.872;25.314;2022-11-15T10:00:02;97374.38;;;7.52;82.14
42771;BME280;28426;42.872;25.314;2022-11-15T10:03:12;97370.41;;;7.56;82.18
42771;BME280;28426;42.872;25.314;2022-11-15T10:05:46;97367.41;;;7.59;82.30
42771;BME280;28426;42.872;25.314;2022-11-15T10:08:30;97363.59;;;7.62;82.22
42771;BME280;28426;42.872;25.314;2022-11-15T10:11:03;97359.63;;;7.66;82.14
42771;BME280;28426;42.872;25.314;2022-11-15T10:14:01;97358.47;;;7.69;82.17
42771;BME280;28426;42.872;25.314;2022-11-15T10:19:42;97345.38;;;7.76;81.61
42771;BME280;28426;42.872;25.314;2022-11-15T10:22:30;97344.25;;;7.78;81.35
42771;BME280;28426;42.872;25.314;2022-11-15T10:25:18;97337.78;;;7.81;81.56
42771;BME280;28426;42.872;25.314;2022-11-15T10:28:01;97334.78;;;7.84;81.50
42771;BME280;28426;42.872;25.314;2022-11-15T10:30:39;97321.50;;;7.84;81.55
42771;BME280;28426;42.872;25.314;2022-11-15T10:33:29;97325.19;;;7.91;81.22
42771;BME280;28426;42.872;25.314;2022-11-15T10:36:20;97318.41;;;7.97;81.34
42771;BME280;28426;42.872;25.314;2022-11-15T10:38:57;97314.91;;;7.96;81.25
42771;BME280;28426;42.872;25.314;2022-11-15T10:41:45;97308.44;;;8.07;81.08
42771;BME280;28426;42.872;25.314;2022-11-15T10:44:24;97300.81;;;8.13;81.21
42771;BME280;28426;42.872;25.314;2022-11-15T10:47:25;97300.13;;;8.19;80.77
42771;BME280;28426;42.872;25.314;2022-11-15T10:50:05;97300.66;;;8.22;80.74
42771;BME280;28426;42.872;25.314;2022-11-15T10:52:36;97299.50;;;8.25;80.55
42771;BME280;28426;42.872;25.314;2022-11-15T10:55:23;97288.19;;;8.23;80.79
42771;BME280;28426;42.872;25.314;2022-11-15T10:57:56;97290.19;;;8.29;80.60
42771;BME280;28426;42.872;25.314;2022-11-15T11:00:34;97303.66;;;8.36;80.15
42771;BME280;28426;42.872;25.314;2022-11-15T11:03:27;97299.00;;;8.38;80.31
42771;BME280;28426;42.872;25.314;2022-11-15T11:06:07;97283.19;;;8.36;80.43
42771;BME280;28426;42.872;25.314;2022-11-15T11:08:38;97291.69;;;8.48;80.19
42771;BME280;28426;42.872;25.314;2022-11-15T11:11:09;97289.84;;;8.49;79.97
42771;BME280;28426;42.872;25.314;2022-11-15T11:13:39;97295.84;;;8.51;79.48
42771;BME280;28426;42.872;25.314;2022-11-15T11:16:24;97292.88;;;8.54;79.87
42771;BME280;28426;42.872;25.314;2022-11-15T11:19:17;97291.53;;;8.58;79.70
42771;BME280;28426;42.872;25.314;2022-11-15T11:21:57;97289.38;;;8.62;79.74
42771;BME280;28426;42.872;25.314;2022-11-15T11:24:34;97278.38;;;8.65;79.55
42771;BME280;28426;42.872;25.314;2022-11-15T11:27:24;97275.25;;;8.70;79.36
42771;BME280;28426;42.872;25.314;2022-11-15T11:30:03;97275.06;;;8.71;79.05
42771;BME280;28426;42.872;25.314;2022-11-15T11:33:08;97268.06;;;8.70;78.55
42771;BME280;28426;42.872;25.314;2022-11-15T11:35:50;97265.41;;;8.70;78.66
42771;BME280;28426;42.872;25.314;2022-11-15T11:38:48;97269.75;;;8.71;78.85
42771;BME280;28426;42.872;25.314;2022-11-15T11:41:41;97273.22;;;8.72;78.21
42771;BME280;28426;42.872;25.314;2022-11-15T11:44:27;97268.44;;;8.67;78.24
42771;BME280;28426;42.872;25.314;2022-11-15T11:47:00;97268.06;;;8.70;78.25
42771;BME280;28426;42.872;25.314;2022-11-15T11:49:36;97265.41;;;8.70;78.25
42771;BME280;28426;42.872;25.314;2022-11-15T11:52:14;97259.28;;;8.70;78.25
42771;BME280;28426;42.872;25.314;2022-11-15T11:54:53;97251.63;;;8.67;78.03
42771;BME280;28426;42.872;25.314;2022-11-15T11:57:33;97253.44;;;8.66;77.82
42771;BME280;28426;42.872;25.314;2022-11-15T12:00:15;97240.34;;;8.65;77.52
42771;BME280;28426;42.872;25.314;2022-11-15T12:02:54;97236.19;;;8.62;77.62
42771;BME280;28426;42.872;25.314;2022-11-15T12:05:35;97245.16;;;8.61;77.89
42771;BME280;28426;42.872;25.314;2022-11-15T12:08:22;97239.81;;;8.61;77.36
42771;BME280;28426;42.872;25.314;2022-11-15T12:10:59;97236.50;;;8.59;77.69
42771;BME280;28426;42.872;25.314;2022-11-15T12:13:31;97234.50;;;8.61;77.59
42771;BME280;28426;42.872;25.314;2022-11-15T12:16:09;97225.88;;;8.59;77.34
42771;BME280;28426;42.872;25.314;2022-11-15T12:18:46;97222.53;;;8.57;77.45
42771;BME280;28426;42.872;25.314;2022-11-15T12:21:18;97217.22;;;8.57;77.49
42771;BME280;28426;42.872;25.314;2022-11-15T12:24:00;97205.59;;;8.58;77.46
42771;BME280;28426;42.872;25.314;2022-11-15T12:26:36;97207.25;;;8.59;77.86
42771;BME280;28426;42.872;25.314;2022-11-15T12:29:11;97199.91;;;8.61;77.57
42771;BME280;28426;42.872;25.314;2022-11-15T12:31:48;97195.28;;;8.63;77.56
42771;BME280;28426;42.872;25.314;2022-11-15T12:34:36;97194.91;;;8.66;77.69
42771;BME280;28426;42.872;25.314;2022-11-15T12:37:32;97193.09;;;8.67;77.12
42771;BME280;28426;42.872;25.314;2022-11-15T12:40:19;97193.25;;;8.65;77.16
42771;BME280;28426;42.872;25.314;2022-11-15T12:43:38;97190.97;;;8.62;77.16
42771;BME280;28426;42.872;25.314;2022-11-15T12:46:22;97189.28;;;8.61;77.19
42771;BME280;28426;42.872;25.314;2022-11-15T12:48:56;97189.28;;;8.61;77.36
42771;BME280;28426;42.872;25.314;2022-11-15T12:54:54;97178.47;;;8.62;76.90
42771;BME280;28426;42.872;25.314;2022-11-15T12:57:33;97169.19;;;8.58;77.15
42771;BME280;28426;42.872;25.314;2022-11-15T13:00:37;97172.16;;;8.63;77.20
42771;BME280;28426;42.872;25.314;2022-11-15T13:03:26;97161.50;;;8.63;77.30
42771;BME280;28426;42.872;25.314;2022-11-15T13:06:09;97150.69;;;8.65;77.30
42771;BME280;28426;42.872;25.314;2022-11-15T13:08:49;97146.41;;;8.56;76.99
42771;BME280;28426;42.872;25.314;2022-11-15T13:11:45;97153.72;;;8.62;77.08
42771;BME280;28426;42.872;25.314;2022-11-15T13:14:40;97151.22;;;8.60;76.81
42771;BME280;28426;42.872;25.314;2022-11-15T13:17:29;97145.59;;;8.55;76.65
42771;BME280;28426;42.872;25.314;2022-11-15T13:20:15;97158.06;;;8.55;76.67
42771;BME280;28426;42.872;25.314;2022-11-15T13:22:48;97160.22;;;8.51;76.72
42771;BME280;28426;42.872;25.314;2022-11-15T13:25:45;97150.91;;;8.47;76.76
42771;BME280;28426;42.872;25.314;2022-11-15T13:28:24;97154.91;;;8.43;76.87
42771;BME280;28426;42.872;25.314;2022-11-15T13:31:00;97144.59;;;8.40;76.97
42771;BME280;28426;42.872;25.314;2022-11-15T13:33:36;97141.09;;;8.39;77.26
42771;BME280;28426;42.872;25.314;2022-11-15T13:36:09;97138.44;;;8.39;77.43
42771;BME280;28426;42.872;25.314;2022-11-15T13:38:44;97132.31;;;8.38;77.63
42771;BME280;28426;42.872;25.314;2022-11-15T13:41:19;97134.13;;;8.38;77.60
42771;BME280;28426;42.872;25.314;2022-11-15T13:43:51;97131.78;;;8.43;77.83
42771;BME280;28426;42.872;25.314;2022-11-15T13:46:23;97129.63;;;8.47;77.96
42771;BME280;28426;42.872;25.314;2022-11-15T13:48:59;97125.81;;;8.49;77.97
42771;BME280;28426;42.872;25.314;2022-11-15T13:51:36;97131.75;;;8.51;77.88
42771;BME280;28426;42.872;25.314;2022-11-15T13:54:13;97121.00;;;8.53;77.92
42771;BME280;28426;42.872;25.314;2022-11-15T13:56:49;97124.97;;;8.57;77.71
42771;BME280;28426;42.872;25.314;2022-11-15T13:59:25;97117.81;;;8.58;77.70
42771;BME280;28426;42.872;25.314;2022-11-15T14:01:59;97117.00;;;8.57;77.66
42771;BME280;28426;42.872;25.314;2022-11-15T14:04:34;97114.50;;;8.56;77.61
42771;BME280;28426;42.872;25.314;2022-11-15T14:07:05;97111.19;;;8.54;77.55
42771;BME280;28426;42.872;25.314;2022-11-15T14:09:37;97114.81;;;8.53;77.54
42771;BME280;28426;42.872;25.314;2022-11-15T14:12:28;97116.81;;;8.50;77.67
42771;BME280;28426;42.872;25.314;2022-11-15T14:15:01;97118.81;;;8.48;77.95
42771;BME280;28426;42.872;25.314;2022-11-15T14:17:37;97114.66;;;8.46;77.89
42771;BME280;28426;42.872;25.314;2022-11-15T14:20:27;97115.50;;;8.46;77.90
42771;BME280;28426;42.872;25.314;2022-11-15T14:23:00;97118.31;;;8.45;78.16
42771;BME280;28426;42.872;25.314;2022-11-15T14:25:31;97113.84;;;8.45;77.83
42771;BME280;28426;42.872;25.314;2022-11-15T14:28:15;97116.66;;;8.44;78.07
42771;BME280;28426;42.872;25.314;2022-11-15T14:30:45;97114.34;;;8.41;78.00
42771;BME280;28426;42.872;25.314;2022-11-15T14:33:20;97112.84;;;8.38;77.92
42771;BME280;28426;42.872;25.314;2022-11-15T14:35:55;97107.91;;;8.35;78.04
42771;BME280;28426;42.872;25.314;2022-11-15T14:38:26;97105.41;;;8.33;78.15
42771;BME280;28426;42.872;25.314;2022-11-15T14:40:57;97111.91;;;8.31;77.65
42771;BME280;28426;42.872;25.314;2022-11-15T14:43:27;97106.91;;;8.28;78.04
42771;BME280;28426;42.872;25.314;2022-11-15T14:45:58;97111.75;;;8.24;78.06
42771;BME280;28426;42.872;25.314;2022-11-15T14:48:29;97113.91;;;8.20;78.30
42771;BME280;28426;42.872;25.314;2022-11-15T14:51:03;97107.94;;;8.18;78.06
42771;BME280;28426;42.872;25.314;2022-11-15T14:53:33;97110.91;;;8.15;78.36
42771;BME280;28426;42.872;25.314;2022-11-15T14:56:04;97108.59;;;8.12;78.18
42771;BME280;28426;42.872;25.314;2022-11-15T14:58:35;97105.28;;;8.10;78.39